Time;durP1;ratioP1;P1;durP2;ratioP2;P2;SDS_P1;SDS_P2;PMS_P1;PMS_P2;Temp;Humidity;BMP_temperature;BMP_pressure;BME280_temperature;BME280_humidity;BME280_pressure;Samples;Min_cycle;Max_cycle;Signal;HPM_P1;HPM_P2
2021/01/18 00:00:52;;;;;;;28.27;17.30;;;-4.50;99.90;-6.20;97024.00;;;;5053898;28;20419;-70
2021/01/18 00:03:20;;;;;;;26.43;16.53;;;-4.60;99.90;-6.20;96997.00;;;;5065821;28;20446;-69
2021/01/18 00:05:48;;;;;;;30.07;17.80;;;-4.50;99.90;-6.20;97010.00;;;;5054035;28;20439;-69
2021/01/18 00:08:16;;;;;;;29.17;17.80;;;-4.50;99.90;-6.20;97011.00;;;;5052695;28;20431;-69
2021/01/18 00:10:44;;;;;;;26.80;16.33;;;-4.50;99.90;-6.20;97013.00;;;;5053703;28;20477;-69
2021/01/18 00:13:12;;;;;;;25.50;15.63;;;-4.50;99.90;-6.20;97011.00;;;;5052922;28;20454;-70
2021/01/18 00:15:39;;;;;;;26.37;15.40;;;-4.50;99.90;-6.20;97018.00;;;;5053702;28;21007;-69
2021/01/18 00:18:07;;;;;;;24.50;15.57;;;-4.60;99.90;-6.20;97028.00;;;;5052825;28;20427;-71
2021/01/18 00:20:35;;;;;;;29.50;16.03;;;-4.50;99.90;-6.30;97030.00;;;;5053038;28;20435;-70
2021/01/18 00:23:03;;;;;;;24.10;15.43;;;-4.60;99.90;-6.20;97022.00;;;;5068804;28;20536;-70
2021/01/18 00:25:31;;;;;;;24.50;16.17;;;-4.60;99.90;-6.20;97029.00;;;;5073297;28;20430;-70
2021/01/18 00:27:59;;;;;;;22.37;13.40;;;-4.60;99.90;-6.30;97024.00;;;;5072673;28;20430;-70
2021/01/18 00:30:27;;;;;;;25.87;16.43;;;-4.60;99.90;-6.20;97026.00;;;;5073389;28;20474;-71
2021/01/18 00:32:55;;;;;;;29.43;16.03;;;-4.60;99.90;-6.20;97019.00;;;;5061946;28;20484;-70
2021/01/18 00:35:25;;;;;;;30.67;16.77;;;-4.60;99.90;-6.30;97032.00;;;;5071930;28;20430;-71
2021/01/18 00:37:53;;;;;;;28.90;17.67;;;-4.60;99.90;-6.30;97024.00;;;;5068821;28;20501;-71
2021/01/18 00:40:23;;;;;;;25.87;17.23;;;-4.60;99.90;-6.20;97021.00;;;;5052997;28;20435;-70
2021/01/18 00:42:53;;;;;;;20.33;14.73;;;-4.60;99.90;-6.20;97030.00;;;;5058612;28;20528;-69
2021/01/18 00:45:23;;;;;;;28.33;16.53;;;-4.60;99.90;-6.30;97023.00;;;;5072610;28;20458;-70
2021/01/18 00:47:53;;;;;;;31.80;17.73;;;-4.60;99.90;-6.20;97032.00;;;;5071876;28;20472;-70
2021/01/18 00:50:23;;;;;;;25.90;15.33;;;-4.60;99.90;-6.30;97031.00;;;;5071632;28;20485;-70
2021/01/18 00:52:53;;;;;;;24.93;15.53;;;-4.60;99.90;-6.30;97031.00;;;;5072711;28;20433;-70
2021/01/18 00:55:23;;;;;;;26.17;16.23;;;-4.60;99.90;-6.40;97030.00;;;;5072405;28;20436;-69
2021/01/18 00:57:52;;;;;;;29.00;16.10;;;-4.60;99.90;-6.30;97036.00;;;;5072624;28;20434;-70
2021/01/18 01:00:22;;;;;;;29.50;17.43;;;-4.70;99.90;-6.30;97031.00;;;;5072921;28;20430;-70
2021/01/18 01:02:52;;;;;;;26.03;15.90;;;-4.70;99.90;-6.20;97034.00;;;;5072295;28;20556;-70
2021/01/18 01:05:24;;;;;;;30.57;19.20;;;-4.60;99.90;-6.30;97041.00;;;;5072199;28;20442;-70
2021/01/18 01:07:53;;;;;;;28.20;18.00;;;-4.60;99.90;-6.20;97036.00;;;;5071600;28;20499;-69
2021/01/18 01:10:24;;;;;;;24.67;17.07;;;-4.40;99.90;-6.20;97032.00;;;;5072327;28;20474;-70
2021/01/18 01:12:56;;;;;;;27.77;17.20;;;-4.60;99.90;-6.20;97033.00;;;;5072331;28;20429;-70
2021/01/18 01:15:25;;;;;;;27.30;16.27;;;-4.60;99.90;-6.20;97022.00;;;;5072450;28;20462;-69
2021/01/18 01:17:53;;;;;;;25.63;16.77;;;-4.60;99.90;-6.20;97028.00;;;;5071471;28;20437;-72
2021/01/18 01:20:23;;;;;;;32.03;17.73;;;-4.60;99.90;-6.40;97031.00;;;;5072522;28;20426;-69
2021/01/18 01:22:51;;;;;;;23.73;15.27;;;-4.60;99.90;-6.40;97026.00;;;;5071614;28;20479;-70
2021/01/18 01:25:20;;;;;;;29.37;17.70;;;-4.70;99.90;-6.40;97027.00;;;;5072516;28;20503;-69
2021/01/18 01:27:49;;;;;;;19.70;13.00;;;-4.70;99.90;-6.40;97022.00;;;;5071189;28;20492;-69
2021/01/18 01:30:20;;;;;;;23.37;14.23;;;-4.70;99.90;-6.50;97018.00;;;;5072197;28;20462;-70
2021/01/18 01:32:50;;;;;;;24.17;15.80;;;-4.80;99.90;-6.60;97023.00;;;;5071835;28;20430;-69
2021/01/18 01:35:20;;;;;;;28.00;16.33;;;-4.80;99.90;-6.60;97026.00;;;;5071852;28;20422;-69
2021/01/18 01:37:47;;;;;;;25.53;16.00;;;-4.90;99.90;-6.60;97017.00;;;;5071140;28;20422;-70
2021/01/18 01:40:17;;;;;;;18.70;13.13;;;-4.90;99.90;-6.60;97033.00;;;;5071758;28;20433;-69
2021/01/18 01:42:46;;;;;;;24.13;16.13;;;-4.90;99.90;-6.60;97026.00;;;;5071880;28;20428;-68
2021/01/18 01:45:17;;;;;;;23.50;14.83;;;-4.90;99.90;-6.60;97032.00;;;;5071965;28;20423;-70
2021/01/18 01:47:47;;;;;;;26.33;15.83;;;-4.90;99.90;-6.60;97018.00;;;;5070763;28;20430;-70
2021/01/18 01:50:18;;;;;;;27.63;16.10;;;-4.90;99.90;-6.50;97032.00;;;;5071682;28;20532;-70
2021/01/18 01:52:49;;;;;;;28.63;18.10;;;-4.90;99.90;-6.50;97011.00;;;;5071082;28;20426;-70
2021/01/18 01:55:25;;;;;;;29.07;16.70;;;-4.90;99.90;-6.60;97003.00;;;;5071822;28;20426;-70
2021/01/18 01:57:54;;;;;;;28.97;18.37;;;-4.90;99.90;-6.50;97021.00;;;;5071109;28;20426;-69
2021/01/18 02:00:24;;;;;;;32.93;17.03;;;-4.90;99.90;-6.50;97012.00;;;;5070478;28;20434;-68
2021/01/18 02:02:52;;;;;;;26.80;16.17;;;-4.90;99.90;-6.60;97026.00;;;;5071119;28;20483;-69
2021/01/18 02:05:20;;;;;;;27.13;17.27;;;-4.90;99.90;-6.50;97031.00;;;;5071515;28;20504;-69
2021/01/18 02:07:48;;;;;;;32.77;16.67;;;-4.90;99.90;-6.60;97026.00;;;;5070414;28;20567;-70
2021/01/18 02:10:16;;;;;;;26.93;15.97;;;-4.90;99.90;-6.60;97030.00;;;;5071477;28;20473;-70
2021/01/18 02:12:44;;;;;;;26.73;16.97;;;-4.90;99.90;-6.60;97020.00;;;;5070766;28;20532;-69
2021/01/18 02:15:30;;;;;;;26.70;16.57;;;-4.90;99.90;-6.60;97016.00;;;;5071157;28;20521;-69
2021/01/18 02:18:20;;;;;;;29.00;15.30;;;-4.80;99.90;-6.60;97014.00;;;;5070139;28;20517;-70
2021/01/18 02:21:40;;;;;;;29.87;16.87;;;-4.90;99.90;-6.40;97013.00;;;;5071410;28;20418;-69
2021/01/18 02:25:01;;;;;;;23.73;14.30;;;-4.90;99.90;-6.40;97014.00;;;;5050672;28;20485;-69
2021/01/18 02:28:17;;;;;;;29.03;16.70;;;-4.80;99.90;-6.40;97007.00;;;;5037973;28;20461;-69
2021/01/18 02:31:33;;;;;;;24.10;14.80;;;-4.80;99.90;-6.40;97011.00;;;;5051006;28;20525;-70
2021/01/18 02:34:52;;;;;;;23.40;13.73;;;-4.80;99.90;-6.40;97014.00;;;;5062388;28;20446;-70
2021/01/18 02:37:41;;;;;;;21.13;14.27;;;-4.80;99.90;-6.30;97025.00;;;;5070700;28;20437;-69
2021/01/18 02:40:20;;;;;;;28.37;17.20;;;-4.70;99.90;-6.40;97016.00;;;;5070745;28;20423;-69
2021/01/18 02:42:52;;;;;;;29.70;16.60;;;-4.70;99.90;-6.50;97014.00;;;;5067367;28;20519;-69
2021/01/18 02:45:22;;;;;;;26.53;16.63;;;-4.80;99.90;-6.40;97015.00;;;;5066050;28;20423;-70
2021/01/18 02:47:50;;;;;;;27.07;15.90;;;-4.80;99.90;-6.40;97019.00;;;;5070133;28;20437;-71
2021/01/18 02:50:20;;;;;;;32.80;19.30;;;-4.70;99.90;-6.30;97014.00;;;;5070962;28;20451;-69
2021/01/18 02:52:49;;;;;;;25.07;17.23;;;-4.70;99.90;-6.20;97016.00;;;;5070795;28;20470;-69
2021/01/18 02:55:17;;;;;;;32.67;17.67;;;-4.70;99.90;-6.20;97021.00;;;;5070955;28;20513;-70
2021/01/18 02:57:48;;;;;;;26.17;15.77;;;-4.70;99.90;-6.20;97016.00;;;;5070489;28;20426;-70
2021/01/18 03:00:23;;;;;;;31.67;16.53;;;-4.60;99.90;-6.10;97001.00;;;;5070776;28;20452;-70
2021/01/18 03:03:06;;;;;;;28.33;16.90;;;-4.60;99.90;-6.00;97007.00;;;;5070495;28;20469;-70
2021/01/18 03:05:51;;;;;;;32.80;17.00;;;-4.60;99.90;-6.00;97012.00;;;;5070483;28;20438;-69
2021/01/18 03:08:28;;;;;;;29.17;15.00;;;-4.50;99.90;-6.00;97013.00;;;;5070097;28;20513;-68
2021/01/18 03:11:03;;;;;;;31.50;18.10;;;-4.50;99.90;-6.00;97016.00;;;;5070610;28;20462;-69
2021/01/18 03:13:33;;;;;;;27.37;15.73;;;-4.40;99.90;-6.00;97003.00;;;;5070446;28;20473;-69
2021/01/18 03:16:11;;;;;;;27.87;16.37;;;-4.40;99.90;-6.00;97000.00;;;;5070577;28;20434;-69
2021/01/18 03:18:43;;;;;;;34.50;16.93;;;-4.40;99.90;-6.00;97013.00;;;;5071575;28;20454;-69
2021/01/18 03:21:11;;;;;;;23.40;16.80;;;-4.40;99.90;-5.90;97008.00;;;;5074373;28;20578;-69
2021/01/18 03:23:44;;;;;;;26.23;17.17;;;-4.40;99.90;-6.00;97011.00;;;;5074062;28;20920;-69
2021/01/18 03:26:12;;;;;;;23.87;15.40;;;-4.40;99.90;-6.00;96999.00;;;;5074488;28;20486;-70
2021/01/18 03:28:40;;;;;;;23.87;16.03;;;-4.40;99.90;-6.10;97000.00;;;;5073979;28;20464;-70
2021/01/18 03:31:08;;;;;;;27.63;17.80;;;-4.40;99.90;-6.10;97010.00;;;;5074347;28;20458;-69
2021/01/18 03:33:36;;;;;;;28.63;17.40;;;-4.20;99.90;-6.10;97017.00;;;;5074105;28;20545;-69
2021/01/18 03:36:05;;;;;;;29.27;17.00;;;-4.40;99.90;-6.00;97013.00;;;;5074332;28;20426;-69
2021/01/18 03:38:32;;;;;;;26.27;16.17;;;-4.40;99.90;-6.00;97009.00;;;;5073861;28;20517;-69
2021/01/18 03:41:02;;;;;;;28.07;17.23;;;-4.40;99.90;-6.00;97001.00;;;;5074116;28;20449;-69
2021/01/18 03:43:29;;;;;;;31.07;16.90;;;-4.40;99.90;-6.00;96988.00;;;;5073551;28;20446;-69
2021/01/18 03:45:57;;;;;;;28.60;16.07;;;-4.40;99.90;-5.90;96997.00;;;;5074091;28;20543;-69
2021/01/18 03:48:25;;;;;;;26.53;16.10;;;-4.20;99.90;-5.90;96988.00;;;;5053783;28;20522;-69
2021/01/18 03:50:53;;;;;;;27.13;16.80;;;-4.40;99.90;-5.90;96999.00;;;;5053580;28;20482;-69
2021/01/18 03:53:20;;;;;;;23.60;14.60;;;-4.20;99.90;-5.90;96981.00;;;;5053631;28;20477;-69
2021/01/18 03:55:48;;;;;;;29.80;15.47;;;-4.30;99.90;-5.80;96991.00;;;;5053968;28;20462;-69
2021/01/18 03:58:18;;;;;;;28.53;17.53;;;-4.10;99.90;-5.90;96984.00;;;;5053102;28;20450;-70
2021/01/18 04:00:46;;;;;;;28.47;17.77;;;-4.30;99.90;-5.90;96973.00;;;;5052954;28;20439;-69
2021/01/18 04:03:13;;;;;;;27.93;15.53;;;-4.30;99.90;-5.90;96980.00;;;;5051894;28;20542;-69
2021/01/18 04:05:41;;;;;;;24.47;15.47;;;-4.30;99.90;-6.00;96987.00;;;;5051854;28;20530;-70
2021/01/18 04:08:09;;;;;;;29.27;16.90;;;-4.30;99.90;-5.90;96975.00;;;;5050993;28;20427;-70
2021/01/18 04:10:37;;;;;;;25.23;16.83;;;-4.30;99.90;-5.90;96988.00;;;;5051662;28;20471;-69
2021/01/18 04:13:05;;;;;;;34.77;19.03;;;-4.30;99.90;-5.90;96981.00;;;;5051282;28;20575;-68
2021/01/18 04:15:33;;;;;;;25.70;15.90;;;-4.30;99.90;-6.00;96981.00;;;;5051828;28;20534;-69
2021/01/18 04:18:01;;;;;;;26.50;17.50;;;-4.30;99.90;-6.00;96989.00;;;;5051389;28;20438;-69
2021/01/18 04:20:29;;;;;;;25.70;16.33;;;-4.40;99.90;-6.00;96989.00;;;;5051530;28;20434;-70
2021/01/18 04:22:59;;;;;;;29.13;15.90;;;-4.30;99.90;-5.90;96996.00;;;;5051596;28;20451;-69
2021/01/18 04:25:28;;;;;;;27.97;17.47;;;-4.40;99.90;-6.00;96993.00;;;;5051530;28;20432;-69
2021/01/18 04:27:58;;;;;;;30.40;17.00;;;-4.30;99.90;-6.00;96975.00;;;;5050692;28;20427;-69
2021/01/18 04:30:28;;;;;;;27.63;17.60;;;-4.30;99.90;-6.00;96986.00;;;;5055765;28;20487;-69
2021/01/18 04:32:58;;;;;;;27.20;16.13;;;-4.40;99.90;-6.10;96984.00;;;;5051087;28;20450;-71
2021/01/18 04:35:26;;;;;;;32.07;18.70;;;-4.40;99.90;-6.10;96993.00;;;;5050261;28;20430;-70
2021/01/18 04:37:55;;;;;;;32.80;17.10;;;-4.40;99.90;-6.00;96996.00;;;;5051167;28;20506;-70
2021/01/18 04:40:25;;;;;;;26.67;16.20;;;-4.40;99.90;-6.00;96983.00;;;;5051061;28;20434;-70
2021/01/18 04:42:54;;;;;;;25.67;15.03;;;-4.40;99.90;-6.00;96988.00;;;;5050962;28;20427;-70
2021/01/18 04:45:24;;;;;;;25.50;15.20;;;-4.40;99.90;-5.90;97003.00;;;;5057627;28;20442;-70
2021/01/18 04:47:55;;;;;;;24.57;15.83;;;-4.40;99.90;-5.90;96985.00;;;;5066425;28;20426;-70
2021/01/18 04:50:26;;;;;;;28.37;17.13;;;-4.40;99.90;-5.90;97009.00;;;;5071099;28;20434;-70
2021/01/18 04:52:56;;;;;;;26.17;16.67;;;-4.40;99.90;-5.90;96988.00;;;;5071196;28;20461;-69
2021/01/18 04:55:32;;;;;;;30.73;18.63;;;-4.30;99.90;-5.90;96993.00;;;;5070938;28;20426;-69
2021/01/18 04:58:09;;;;;;;29.57;18.10;;;-3.10;99.90;-6.00;96981.00;;;;5070349;28;20451;-70
2021/01/18 05:00:44;;;;;;;31.07;17.13;;;-4.30;99.90;-6.00;96982.00;;;;5068181;28;20418;-70
2021/01/18 05:03:13;;;;;;;24.37;14.77;;;-4.30;99.90;-6.00;96989.00;;;;5069706;28;20446;-70
2021/01/18 05:06:33;;;;;;;30.20;19.47;;;-4.40;99.90;-6.10;96976.00;;;;5069477;28;20430;-69
2021/01/18 05:09:27;;;;;;;26.33;14.90;;;-4.40;99.90;-6.20;96986.00;;;;5064729;28;20454;-69
2021/01/18 05:11:57;;;;;;;26.20;16.40;;;-4.40;99.90;-6.20;96972.00;;;;5067184;28;20481;-70
2021/01/18 05:14:25;;;;;;;26.20;16.87;;;-4.50;99.90;-6.20;96977.00;;;;5070240;28;20446;-70
2021/01/18 05:16:56;;;;;;;24.90;14.97;;;-4.50;99.90;-6.20;96978.00;;;;5069778;28;20425;-69
2021/01/18 05:19:25;;;;;;;29.57;16.80;;;-4.50;99.90;-6.20;96976.00;;;;5069768;28;20534;-69
2021/01/18 05:21:55;;;;;;;28.87;19.40;;;-4.50;99.90;-6.30;96979.00;;;;5070498;28;20431;-71
2021/01/18 05:24:23;;;;;;;28.53;18.60;;;-4.60;99.90;-6.30;96984.00;;;;5070123;28;20485;-70
2021/01/18 05:27:06;;;;;;;29.83;17.70;;;-4.60;99.90;-6.30;96973.00;;;;5070084;28;20430;-70
2021/01/18 05:29:36;;;;;;;28.50;16.40;;;-4.60;99.90;-6.30;96977.00;;;;5069806;28;20438;-70
2021/01/18 05:32:21;;;;;;;27.23;16.30;;;-4.60;99.90;-6.30;96983.00;;;;5069649;28;20936;-69
2021/01/18 05:34:51;;;;;;;26.70;17.10;;;-4.50;99.90;-6.40;96968.00;;;;5069993;28;20820;-70
2021/01/18 05:37:20;;;;;;;30.87;18.60;;;-4.70;99.90;-6.40;96979.00;;;;5069678;28;20427;-70
2021/01/18 05:39:48;;;;;;;29.57;16.50;;;-4.70;99.90;-6.40;96987.00;;;;5069955;28;20569;-70
2021/01/18 05:42:21;;;;;;;31.50;18.47;;;-4.70;99.90;-6.30;96981.00;;;;5067299;28;20462;-70
2021/01/18 05:44:50;;;;;;;29.10;17.23;;;-4.70;99.90;-6.40;96983.00;;;;5067575;28;20516;-70
2021/01/18 05:47:18;;;;;;;25.47;15.17;;;-4.70;99.90;-6.40;96986.00;;;;5067102;28;20504;-69
2021/01/18 05:49:48;;;;;;;27.67;17.53;;;-4.70;99.90;-6.40;96980.00;;;;5067839;28;20489;-70
2021/01/18 05:52:28;;;;;;;26.63;17.20;;;-4.60;99.90;-6.40;96989.00;;;;5067652;28;20466;-70
2021/01/18 05:55:16;;;;;;;26.83;16.27;;;-4.70;99.90;-6.40;96982.00;;;;5067593;28;20458;-70
2021/01/18 05:57:47;;;;;;;33.60;18.90;;;-4.70;99.90;-6.40;96978.00;;;;5067620;28;20686;-70
2021/01/18 06:00:25;;;;;;;31.30;16.97;;;-4.50;99.90;-6.50;96993.00;;;;5067522;28;20470;-70
2021/01/18 06:02:53;;;;;;;27.67;15.47;;;-4.70;99.90;-6.40;96998.00;;;;5067406;28;20554;-70
2021/01/18 06:05:29;;;;;;;29.97;16.73;;;-4.70;99.90;-6.40;96998.00;;;;5067534;28;20486;-70
2021/01/18 06:08:14;;;;;;;24.30;16.10;;;-3.30;99.90;-6.30;97015.00;;;;5066453;28;20542;-70
2021/01/18 06:10:43;;;;;;;29.80;16.00;;;-4.70;99.90;-6.20;96996.00;;;;5067394;28;20493;-70
2021/01/18 06:13:23;;;;;;;26.80;16.60;;;-4.70;99.90;-6.20;97007.00;;;;5067055;28;20845;-70
2021/01/18 06:16:11;;;;;;;27.90;16.00;;;-4.70;99.90;-6.20;96999.00;;;;5067465;28;20461;-70
2021/01/18 06:18:41;;;;;;;24.70;15.63;;;-4.60;99.90;-6.10;96989.00;;;;5067319;28;20469;-71
2021/01/18 06:21:12;;;;;;;34.90;16.77;;;-4.50;99.90;-6.20;96980.00;;;;5067112;28;20548;-70
2021/01/18 06:23:42;;;;;;;32.97;17.37;;;-4.60;99.90;-6.30;96989.00;;;;5066539;28;20480;-69
2021/01/18 06:26:10;;;;;;;29.40;17.77;;;-4.60;99.90;-6.30;96985.00;;;;5067165;28;20466;-69
2021/01/18 06:28:39;;;;;;;30.60;18.53;;;-4.60;99.90;-6.30;96991.00;;;;5066830;28;20463;-68
2021/01/18 06:31:08;;;;;;;28.67;16.80;;;-4.60;99.90;-6.20;96979.00;;;;5067296;28;20517;-69
2021/01/18 06:33:42;;;;;;;25.60;17.30;;;-4.60;99.90;-6.20;96988.00;;;;5067204;28;20466;-70
2021/01/18 06:36:17;;;;;;;29.63;16.10;;;-4.60;99.90;-6.10;96985.00;;;;5067055;28;20592;-69
2021/01/18 06:38:52;;;;;;;26.80;15.57;;;-4.60;99.90;-6.10;96987.00;;;;5066372;28;20553;-70
2021/01/18 06:41:25;;;;;;;32.00;18.67;;;-4.60;99.90;-6.10;96984.00;;;;5066737;28;20464;-69
2021/01/18 06:43:53;;;;;;;34.77;18.97;;;-4.50;99.90;-6.10;96988.00;;;;5067079;28;20469;-70
2021/01/18 06:46:23;;;;;;;34.50;18.37;;;-4.50;99.90;-6.10;96985.00;;;;5066909;28;20523;-70
2021/01/18 06:48:52;;;;;;;32.73;18.17;;;-4.50;99.90;-6.10;96973.00;;;;5066215;28;20523;-69
2021/01/18 06:51:22;;;;;;;30.90;17.93;;;-4.50;99.90;-6.00;96992.00;;;;5066409;28;20589;-69
2021/01/18 06:53:53;;;;;;;34.17;17.10;;;-4.50;99.90;-5.50;96987.00;;;;5065544;28;20469;-70
2021/01/18 06:57:06;;;;;;;29.93;16.70;;;-4.70;99.90;-5.60;96992.00;;;;5064338;28;20473;-69
2021/01/18 06:59:50;;;;;;;29.30;18.83;;;-4.20;99.90;-5.70;96984.00;;;;5059923;28;20549;-68
2021/01/18 07:02:26;;;;;;;26.00;16.67;;;-4.20;99.90;-5.70;96999.00;;;;5056321;28;20490;-68
2021/01/18 07:05:07;;;;;;;22.73;16.00;;;-4.20;99.90;-5.60;97002.00;;;;5064747;28;20478;-70
2021/01/18 07:07:38;;;;;;;29.97;15.97;;;-4.10;99.90;-5.50;97002.00;;;;5064150;28;20472;-69
2021/01/18 07:10:09;;;;;;;23.90;15.90;;;-4.10;99.90;-5.50;96996.00;;;;5057163;28;20470;-70
2021/01/18 07:12:37;;;;;;;25.77;17.27;;;-3.90;99.90;-5.40;96992.00;;;;5065367;28;20458;-70
2021/01/18 07:15:08;;;;;;;21.93;15.13;;;-4.00;99.90;-5.50;97007.00;;;;5066173;28;20490;-69
2021/01/18 07:17:54;;;;;;;24.50;15.83;;;-3.90;99.90;-5.80;96989.00;;;;5065911;28;20450;-70
2021/01/18 07:20:27;;;;;;;29.83;18.27;;;-3.00;99.90;-5.80;97010.00;;;;5046683;28;20508;-70
2021/01/18 07:23:31;;;;;;;26.10;16.83;;;-4.00;99.90;-5.70;97005.00;;;;5046913;28;20459;-69
2021/01/18 07:26:52;;;;;;;27.70;16.10;;;-4.10;99.90;-5.50;97003.00;;;;5050794;28;20462;-70
2021/01/18 07:29:22;;;;;;;30.43;17.07;;;-4.00;99.90;-5.50;97010.00;;;;5052275;28;20466;-68
2021/01/18 07:31:54;;;;;;;28.53;18.50;;;-4.00;99.90;-5.40;97012.00;;;;5065185;28;20469;-70
2021/01/18 07:34:24;;;;;;;24.57;16.27;;;-3.90;99.90;-5.30;97019.00;;;;5066088;28;20477;-69
2021/01/18 07:36:53;;;;;;;29.60;18.97;;;-3.90;99.90;-5.40;97021.00;;;;5065461;28;20461;-69
2021/01/18 07:39:27;;;;;;;27.80;17.33;;;-3.80;99.90;-5.30;97002.00;;;;5066102;28;20590;-70
2021/01/18 07:41:56;;;;;;;28.27;16.40;;;-3.80;99.90;-5.30;97013.00;;;;5063324;28;20462;-70
2021/01/18 07:44:41;;;;;;;30.23;16.63;;;-3.80;99.90;-5.40;97004.00;;;;5062541;28;20474;-70
2021/01/18 07:47:12;;;;;;;24.63;16.20;;;-3.80;99.90;-5.40;97005.00;;;;5063526;28;20470;-70
2021/01/18 07:49:51;;;;;;;26.40;16.17;;;-3.80;99.90;-5.30;97007.00;;;;5065061;28;20456;-71
2021/01/18 07:52:30;;;;;;;28.70;16.47;;;-3.70;99.90;-5.40;97006.00;;;;5061150;28;20549;-68
2021/01/18 07:55:03;;;;;;;23.93;16.97;;;-3.70;99.90;-5.40;97005.00;;;;5051588;28;20519;-70
2021/01/18 07:57:38;;;;;;;32.90;18.47;;;-3.70;99.90;-5.20;97006.00;;;;5059702;28;20501;-70
2021/01/18 08:00:29;;;;;;;27.17;15.73;;;-3.70;99.90;-5.30;97006.00;;;;5064507;28;20551;-71
2021/01/18 08:03:34;;;;;;;40.57;17.73;;;-3.70;99.90;-4.90;97002.00;;;;5063130;28;20551;-69
2021/01/18 08:06:10;;;;;;;30.87;17.13;;;-3.60;99.90;-4.80;97011.00;;;;5066156;28;20487;-70
2021/01/18 08:08:40;;;;;;;36.37;19.57;;;-3.50;99.90;-4.70;97009.00;;;;5068500;28;20445;-70
2021/01/18 08:11:19;;;;;;;30.77;17.93;;;-3.40;99.90;-4.50;97005.00;;;;5069159;28;20458;-71
2021/01/18 08:13:56;;;;;;;29.70;17.20;;;-3.30;99.90;-4.40;97000.00;;;;5059838;28;20462;-69
2021/01/18 08:16:40;;;;;;;22.60;16.60;;;-3.10;99.90;-4.30;97017.00;;;;5066573;28;20454;-70
2021/01/18 08:19:22;;;;;;;30.53;18.53;;;-3.00;99.90;-4.30;97022.00;;;;5066821;28;20536;-70
2021/01/18 08:22:00;;;;;;;26.50;15.63;;;-2.90;99.90;-4.40;97006.00;;;;5066749;28;20465;-70
2021/01/18 08:24:55;;;;;;;24.83;15.07;;;-2.90;99.90;-4.20;97022.00;;;;5066766;28;20452;-70
2021/01/18 08:27:55;;;;;;;26.80;16.47;;;-2.80;99.90;-4.10;97016.00;;;;5068290;28;20537;-70
2021/01/18 08:30:38;;;;;;;23.10;15.33;;;-2.70;99.90;-4.00;97036.00;;;;5068690;28;20847;-70
2021/01/18 08:33:17;;;;;;;32.47;17.80;;;-2.60;99.90;-3.80;97033.00;;;;5066667;28;20474;-70
2021/01/18 08:35:50;;;;;;;27.33;17.20;;;-2.50;99.90;-4.00;97018.00;;;;5069526;28;20462;-69
2021/01/18 08:38:28;;;;;;;29.63;18.67;;;-2.50;99.90;-3.70;97038.00;;;;5068185;28;20465;-69
2021/01/18 08:41:06;;;;;;;35.93;19.63;;;-2.40;99.90;-3.60;97030.00;;;;5068162;28;20481;-69
2021/01/18 08:43:51;;;;;;;28.03;18.17;;;-2.30;99.90;-3.40;97031.00;;;;5064128;28;20481;-69
2021/01/18 08:46:39;;;;;;;35.53;19.80;;;-2.20;99.90;-3.40;97039.00;;;;5065093;28;20509;-71
2021/01/18 08:49:31;;;;;;;30.73;20.30;;;-2.10;99.90;-3.20;97038.00;;;;5067983;28;20480;-69
2021/01/18 08:52:00;;;;;;;32.60;18.83;;;-2.00;99.90;-3.10;97038.00;;;;5061441;28;20477;-71
2021/01/18 08:54:33;;;;;;;28.50;19.10;;;-2.00;99.90;-3.10;97040.00;;;;5065200;28;20953;-71
2021/01/18 08:57:24;;;;;;;26.90;18.87;;;-1.90;99.90;-3.00;97034.00;;;;5067189;28;20894;-69
2021/01/18 09:00:05;;;;;;;31.83;18.63;;;-1.80;99.90;-2.90;97032.00;;;;5058404;28;20462;-71
2021/01/18 09:02:34;;;;;;;30.17;18.93;;;-1.80;99.90;-2.90;97045.00;;;;5051293;28;20467;-68
2021/01/18 09:05:19;;;;;;;29.97;17.77;;;-1.70;99.90;-2.90;97051.00;;;;5053136;28;20541;-68
2021/01/18 09:07:49;;;;;;;28.87;18.90;;;-1.70;99.90;-2.80;97050.00;;;;5063560;28;20458;-70
2021/01/18 09:10:18;;;;;;;28.80;19.63;;;-1.60;99.90;-2.70;97051.00;;;;5068360;28;20573;-70
2021/01/18 09:12:48;;;;;;;28.30;18.77;;;-1.50;99.90;-2.70;97066.00;;;;5067991;28;20473;-69
2021/01/18 09:15:19;;;;;;;28.90;18.23;;;-1.50;99.90;-2.70;97065.00;;;;5068001;28;20469;-70
2021/01/18 09:17:48;;;;;;;24.53;16.27;;;-1.50;99.90;-2.60;97075.00;;;;5065620;28;20611;-68
2021/01/18 09:20:18;;;;;;;30.97;17.97;;;-1.40;99.90;-2.70;97068.00;;;;5061623;28;20451;-71
2021/01/18 09:22:46;;;;;;;26.87;18.47;;;-1.40;99.90;-2.60;97065.00;;;;5056149;28;20808;-69
2021/01/18 09:25:17;;;;;;;31.40;17.87;;;-1.30;99.90;-2.60;97072.00;;;;5057136;28;20466;-71
2021/01/18 09:27:45;;;;;;;26.17;16.70;;;-1.30;99.90;-2.50;97060.00;;;;5067842;28;20987;-71
2021/01/18 09:30:17;;;;;;;31.90;18.47;;;-1.20;99.90;-2.40;97068.00;;;;5068050;28;20583;-69
2021/01/18 09:32:57;;;;;;;24.77;17.37;;;-1.20;99.90;-2.30;97063.00;;;;5068200;28;20659;-71
2021/01/18 09:35:27;;;;;;;37.07;20.77;;;-1.20;99.90;-2.10;97065.00;;;;5066590;28;20511;-70
2021/01/18 09:37:55;;;;;;;32.60;17.77;;;-1.10;99.90;-2.00;97064.00;;;;5064885;28;20470;-71
2021/01/18 09:40:32;;;;;;;31.63;18.90;;;-1.00;99.90;-1.90;97061.00;;;;5067843;28;20458;-70
2021/01/18 09:43:00;;;;;;;31.57;19.37;;;-0.90;99.90;-1.80;97061.00;;;;5064788;28;20506;-69
2021/01/18 09:45:29;;;;;;;31.63;18.60;;;-0.80;99.90;-1.80;97067.00;;;;5068051;28;21252;-70
2021/01/18 09:48:03;;;;;;;31.07;19.10;;;-0.70;99.90;-1.70;97057.00;;;;5067349;28;20821;-69
2021/01/18 09:50:32;;;;;;;29.93;18.70;;;-0.70;99.90;-1.70;97056.00;;;;5068294;28;20477;-69
2021/01/18 09:53:05;;;;;;;31.47;18.83;;;-0.60;99.90;-1.60;97049.00;;;;5064194;28;20555;-70
2021/01/18 09:55:36;;;;;;;28.23;20.00;;;-0.40;99.90;-1.70;97052.00;;;;5068451;28;20470;-68
2021/01/18 09:58:09;;;;;;;34.17;20.33;;;-0.50;99.90;-1.40;97067.00;;;;5061733;28;20466;-69
2021/01/18 10:00:39;;;;;;;32.03;19.27;;;-0.40;99.90;-1.10;97062.00;;;;5065277;28;20466;-67
2021/01/18 10:03:08;;;;;;;29.17;19.10;;;-0.30;99.90;-0.90;97053.00;;;;5063215;28;20470;-69
2021/01/18 10:05:40;;;;;;;30.20;20.13;;;-0.10;99.90;-0.70;97045.00;;;;5058505;28;20458;-70
2021/01/18 10:08:13;;;;;;;32.83;19.17;;;0.10;99.90;-0.70;97057.00;;;;5066471;28;20465;-71
2021/01/18 10:10:43;;;;;;;31.17;20.20;;;0.20;99.90;-0.60;97047.00;;;;5064674;28;20538;-69
2021/01/18 10:13:17;;;;;;;29.67;19.27;;;0.30;99.90;-0.60;97064.00;;;;5061336;28;20676;-68
2021/01/18 10:15:46;;;;;;;30.07;18.53;;;0.40;99.90;-0.80;97047.00;;;;5066156;28;20476;-69
2021/01/18 10:18:34;;;;;;;31.90;19.97;;;0.40;99.90;-0.80;97044.00;;;;5063467;28;20485;-68
2021/01/18 10:21:03;;;;;;;33.27;19.07;;;0.40;99.90;-0.90;97051.00;;;;5070096;28;20466;-68
2021/01/18 10:23:32;;;;;;;30.50;18.30;;;0.30;99.90;-0.70;97044.00;;;;5060675;28;20541;-68
2021/01/18 10:26:24;;;;;;;32.30;19.50;;;0.30;99.90;-0.90;97045.00;;;;5054667;28;20473;-71
2021/01/18 10:29:00;;;;;;;36.43;21.90;;;0.40;99.90;-0.90;97041.00;;;;5052300;28;20577;-68
2021/01/18 10:31:30;;;;;;;33.73;22.10;;;0.40;99.90;-0.70;97047.00;;;;5065417;28;21083;-69
2021/01/18 10:34:14;;;;;;;25.83;17.57;;;0.40;99.90;-0.60;97041.00;;;;5065432;28;20462;-69
2021/01/18 10:36:43;;;;;;;32.50;19.77;;;0.40;99.90;-0.50;97040.00;;;;5065926;28;20512;-68
2021/01/18 10:39:31;;;;;;;31.97;18.77;;;0.50;99.90;-0.40;97043.00;;;;5058092;28;21011;-69
2021/01/18 10:42:07;;;;;;;32.40;19.10;;;0.60;99.90;-0.40;97021.00;;;;5067025;28;20470;-68
2021/01/18 10:44:37;;;;;;;30.30;20.17;;;0.60;99.90;-0.10;97038.00;;;;5058254;28;20992;-67
2021/01/18 10:47:08;;;;;;;32.87;20.07;;;0.70;99.90;-0.20;97040.00;;;;5057775;28;20843;-69
2021/01/18 10:49:38;;;;;;;29.30;19.33;;;0.90;99.90;-0.10;97042.00;;;;5056824;28;20465;-69
2021/01/18 10:52:09;;;;;;;36.37;19.47;;;0.90;99.90;-0.10;97042.00;;;;5067366;28;20473;-70
2021/01/18 10:54:37;;;;;;;31.93;19.40;;;0.90;99.90;-0.10;97032.00;;;;5066001;28;21056;-67
2021/01/18 10:57:21;;;;;;;28.77;18.83;;;1.00;99.90;-0.20;97033.00;;;;5066919;28;20486;-67
2021/01/18 11:00:09;;;;;;;33.27;19.23;;;1.00;99.90;-0.10;97039.00;;;;5068034;28;20466;-68
2021/01/18 11:02:38;;;;;;;30.10;18.17;;;1.00;99.90;-0.10;97032.00;;;;5054810;28;20469;-69
2021/01/18 11:05:09;;;;;;;30.03;19.90;;;1.00;99.90;0.00;97033.00;;;;5067038;28;20528;-68
2021/01/18 11:07:38;;;;;;;31.30;18.57;;;1.10;99.90;-0.10;97036.00;;;;5066159;28;21023;-67
2021/01/18 11:10:15;;;;;;;27.33;19.30;;;1.10;99.90;0.10;97033.00;;;;5067341;28;20470;-67